createdAt,value
2023-05-14T00:02:22.807Z,90.80
2023-05-14T00:06:25.679Z,90.80
2023-05-14T00:10:28.913Z,91.30
2023-05-14T00:14:31.647Z,91.20
2023-05-14T00:18:35.779Z,91.70
2023-05-14T00:22:39.264Z,92.60
2023-05-14T00:26:42.003Z,93.00
2023-05-14T00:30:45.825Z,92.80
2023-05-14T00:34:50.013Z,92.60
2023-05-14T00:38:52.877Z,92.70
2023-05-14T00:42:56.259Z,92.60
2023-05-14T00:46:59.817Z,92.90
2023-05-14T00:51:04.848Z,93.50
2023-05-14T00:55:08.873Z,93.60
2023-05-14T00:59:12.224Z,94.30
2023-05-14T01:03:16.331Z,94.80
2023-05-14T01:07:31.521Z,94.60
2023-05-14T01:11:41.125Z,94.80
2023-05-14T01:15:46.172Z,94.50
2023-05-14T01:19:50.616Z,94.50
2023-05-14T01:23:57.075Z,94.30
2023-05-14T01:28:07.998Z,94.10
2023-05-14T01:32:13.143Z,94.30
2023-05-14T01:36:18.884Z,95.00
2023-05-14T01:40:24.084Z,95.50
2023-05-14T01:44:30.982Z,96.00
2023-05-14T01:48:34.530Z,96.30
2023-05-14T01:52:37.307Z,96.50
2023-05-14T01:56:42.198Z,96.50
2023-05-14T02:00:44.999Z,96.40
2023-05-14T02:04:50.828Z,96.40
2023-05-14T02:08:54.222Z,96.40
2023-05-14T02:12:58.533Z,96.10
2023-05-14T02:17:01.396Z,96.10
2023-05-14T02:21:04.236Z,96.20
2023-05-14T02:25:08.132Z,96.60
2023-05-14T02:29:12.303Z,96.80
2023-05-14T02:33:15.377Z,97.20
2023-05-14T02:37:18.295Z,97.50
2023-05-14T02:41:21.456Z,97.80
2023-05-14T02:45:25.592Z,98.00
2023-05-14T02:49:28.475Z,97.70
2023-05-14T02:53:31.336Z,97.30
2023-05-14T02:57:34.125Z,97.20
2023-05-14T03:01:38.229Z,97.20
2023-05-14T03:05:41.582Z,97.20
2023-05-14T03:09:44.288Z,97.00
2023-05-14T03:13:47.299Z,97.30
2023-05-14T03:17:51.415Z,97.40
2023-05-14T03:21:54.341Z,97.50
2023-05-14T03:25:57.187Z,97.40
2023-05-14T03:30:00.760Z,97.40
2023-05-14T03:34:05.131Z,97.20
2023-05-14T03:38:07.943Z,97.50
2023-05-14T03:42:10.760Z,98.00
2023-05-14T03:46:13.515Z,98.30
2023-05-14T03:50:18.136Z,98.50
2023-05-14T03:54:21.557Z,98.30
2023-05-14T03:58:24.415Z,98.10
2023-05-14T04:02:27.338Z,97.90
2023-05-14T04:06:33.625Z,97.90
2023-05-14T04:10:37.938Z,97.80
2023-05-14T04:14:40.696Z,97.60
2023-05-14T04:18:46.980Z,97.90
2023-05-14T04:22:52.530Z,98.10
2023-05-14T04:26:55.206Z,98.20
2023-05-14T04:30:58.212Z,98.20
2023-05-14T04:35:01.217Z,98.60
2023-05-14T04:39:08.135Z,98.40
2023-05-14T04:43:13.985Z,98.30
2023-05-14T04:47:19.789Z,98.40
2023-05-14T04:51:24.686Z,98.70
2023-05-14T04:55:34.773Z,98.70
2023-05-14T04:59:37.881Z,98.30
2023-05-14T05:03:41.051Z,98.10
2023-05-14T05:07:44.245Z,97.90
2023-05-14T05:11:49.309Z,97.40
2023-05-14T05:15:52.211Z,97.30
2023-05-14T05:19:55.133Z,97.40
2023-05-14T05:23:58.446Z,97.40
2023-05-14T05:28:02.704Z,97.40
2023-05-14T05:32:06.424Z,96.50
2023-05-14T05:36:09.662Z,95.10
2023-05-14T05:40:14.094Z,91.20
2023-05-14T05:44:18.371Z,90.20
2023-05-14T05:48:21.830Z,90.70
2023-05-14T05:52:26.254Z,91.20
2023-05-14T05:56:29.188Z,87.40
2023-05-14T06:00:33.962Z,88.20
2023-05-14T06:04:37.142Z,89.50
2023-05-14T06:08:40.072Z,90.70
2023-05-14T06:12:42.908Z,89.20
2023-05-14T06:16:47.387Z,89.90
2023-05-14T06:20:50.304Z,90.10
2023-05-14T06:24:53.065Z,90.20
2023-05-14T06:28:55.855Z,88.00
2023-05-14T06:33:01.073Z,80.00
2023-05-14T06:37:04.262Z,80.10
2023-05-14T06:41:07.269Z,73.00
2023-05-14T06:45:10.558Z,75.00
2023-05-14T06:49:14.795Z,72.50
2023-05-14T06:53:17.912Z,72.70
2023-05-14T06:57:21.081Z,75.60
2023-05-14T07:01:24.047Z,75.30
2023-05-14T07:05:28.423Z,75.30
2023-05-14T07:09:31.270Z,76.90
2023-05-14T07:13:34.316Z,75.10
2023-05-14T07:17:37.788Z,74.50
2023-05-14T07:21:42.359Z,72.70
2023-05-14T07:25:47.657Z,71.20
2023-05-14T07:29:52.575Z,61.40
2023-05-14T07:33:55.409Z,58.80
2023-05-14T07:38:00.473Z,58.40
2023-05-14T07:42:05.229Z,53.60
2023-05-14T07:46:10.399Z,56.50
2023-05-14T07:50:13.467Z,59.80
2023-05-14T07:54:18.303Z,63.60
2023-05-14T07:58:21.208Z,65.70
2023-05-14T08:02:24.157Z,69.00
2023-05-14T08:06:27.554Z,65.60
2023-05-14T08:10:31.833Z,67.20
2023-05-14T08:14:34.708Z,65.10
2023-05-14T08:18:37.637Z,65.40
2023-05-14T08:22:40.714Z,66.40
2023-05-14T08:26:45.105Z,64.60
2023-05-14T08:30:48.015Z,61.20
2023-05-14T08:34:50.918Z,64.30
2023-05-14T08:38:53.765Z,63.70
2023-05-14T08:42:58.233Z,60.30
2023-05-14T08:51:05.803Z,59.00
2023-05-14T08:55:09.726Z,59.00
2023-05-14T08:59:14.208Z,59.80
2023-05-14T09:03:18.907Z,60.40
2023-05-14T09:07:22.043Z,60.00
2023-05-14T09:11:25.193Z,62.30
2023-05-14T09:15:30.801Z,62.10
2023-05-14T09:19:33.972Z,60.10
2023-05-14T09:23:36.872Z,57.80
2023-05-14T09:27:40.111Z,60.50
2023-05-14T09:31:44.513Z,59.70
2023-05-14T09:35:49.630Z,58.90
2023-05-14T09:39:52.624Z,58.10
2023-05-14T09:44:17.447Z,57.40
2023-05-14T09:48:22.967Z,58.00
2023-05-14T09:52:26.312Z,57.20
2023-05-14T09:56:34.957Z,55.30
2023-05-14T10:00:39.837Z,56.70
2023-05-14T10:04:54.888Z,54.80
2023-05-14T10:09:06.126Z,54.30
2023-05-14T10:13:17.646Z,56.20
2023-05-14T10:17:26.826Z,55.60
2023-05-14T10:21:33.068Z,57.30
2023-05-14T10:25:36.940Z,54.90
2023-05-14T10:29:39.965Z,56.30
2023-05-14T10:33:49.291Z,54.50
2023-05-14T10:38:01.414Z,54.30
2023-05-14T10:42:09.511Z,56.30
2023-05-14T10:46:18.162Z,55.40
2023-05-14T10:50:23.632Z,57.90
2023-05-14T10:54:31.906Z,56.30
2023-05-14T10:58:59.746Z,56.20
2023-05-14T11:03:08.173Z,57.10
2023-05-14T11:07:12.518Z,56.00
2023-05-14T11:11:36.226Z,54.60
2023-05-14T11:15:47.105Z,54.40
2023-05-14T11:20:00.888Z,52.30
2023-05-14T11:24:05.630Z,51.50
2023-05-14T11:28:33.497Z,52.70
2023-05-14T11:32:36.519Z,51.60
2023-05-14T11:36:39.575Z,51.70
2023-05-14T11:40:42.385Z,52.20
2023-05-14T11:44:48.950Z,51.80
2023-05-14T11:48:51.953Z,52.10
2023-05-14T11:52:58.299Z,51.20
2023-05-14T11:57:03.103Z,51.90
2023-05-14T12:01:08.350Z,50.40
2023-05-14T12:05:14.305Z,51.20
2023-05-14T12:09:18.511Z,50.90
2023-05-14T12:13:21.428Z,50.60
2023-05-14T12:17:27.191Z,52.80
2023-05-14T12:21:31.434Z,51.90
2023-05-14T12:25:34.240Z,51.20
2023-05-14T12:29:39.065Z,51.70
2023-05-14T12:33:43.155Z,48.70
2023-05-14T12:37:47.482Z,49.80
2023-05-14T12:41:50.300Z,49.90
2023-05-14T12:45:54.436Z,50.00
2023-05-14T12:50:01.662Z,50.30
2023-05-14T12:54:05.694Z,49.20
2023-05-14T12:58:09.234Z,49.50
2023-05-14T13:02:12.397Z,51.00
2023-05-14T13:06:16.728Z,50.00
2023-05-14T13:10:19.652Z,51.20
2023-05-14T13:14:22.487Z,51.50
2023-05-14T13:18:26.329Z,51.60
2023-05-14T13:22:31.094Z,51.90
2023-05-14T13:26:33.870Z,51.60
2023-05-14T13:30:37.840Z,51.00
2023-05-14T13:34:40.745Z,50.20
2023-05-14T13:38:46.234Z,50.60
2023-05-14T13:42:49.147Z,50.00
2023-05-14T13:46:52.493Z,48.70
2023-05-14T13:50:55.803Z,48.70
2023-05-14T13:55:00.044Z,48.60
2023-05-14T13:59:03.476Z,49.10
2023-05-14T14:03:07.502Z,49.00
2023-05-14T14:07:11.153Z,52.40
2023-05-14T14:11:17.631Z,54.10
2023-05-14T14:15:20.709Z,54.10
2023-05-14T14:19:24.686Z,54.50
2023-05-14T14:23:27.526Z,56.10
2023-05-14T14:27:34.953Z,59.90
2023-05-14T14:31:38.061Z,64.40
2023-05-14T14:35:40.965Z,71.40
2023-05-14T14:39:45.033Z,76.20
2023-05-14T14:43:49.865Z,81.70
2023-05-14T14:47:52.796Z,85.20
2023-05-14T14:51:55.970Z,88.30
2023-05-14T14:56:01.151Z,89.90
2023-05-14T15:00:07.992Z,91.00
2023-05-14T15:04:11.000Z,91.60
2023-05-14T15:08:14.195Z,93.00
2023-05-14T15:12:17.242Z,92.90
2023-05-14T15:16:21.672Z,92.60
2023-05-14T15:20:24.819Z,90.80
2023-05-14T15:24:27.696Z,92.00
2023-05-14T15:28:30.711Z,91.60
2023-05-14T15:32:35.079Z,91.30
2023-05-14T15:36:38.152Z,91.30
2023-05-14T15:40:41.692Z,91.40
2023-05-14T15:44:44.526Z,90.90
2023-05-14T15:48:48.998Z,90.70
2023-05-14T15:52:51.938Z,89.80
2023-05-14T15:56:56.584Z,87.80
2023-05-14T16:00:59.549Z,92.60
2023-05-14T16:05:04.224Z,93.40
2023-05-14T16:09:07.736Z,93.70
2023-05-14T16:13:12.308Z,93.10
2023-05-14T16:17:15.514Z,94.30
2023-05-14T16:21:19.909Z,94.80
2023-05-14T16:25:23.277Z,91.90
2023-05-14T16:29:26.664Z,92.00
2023-05-14T16:33:29.750Z,91.50
2023-05-14T16:37:34.358Z,90.40
2023-05-14T16:41:37.386Z,89.50
2023-05-14T16:45:44.922Z,90.40
2023-05-14T16:49:47.986Z,88.40
2023-05-14T16:53:52.470Z,90.80
2023-05-14T16:57:57.349Z,88.90
2023-05-14T17:02:00.631Z,90.70
2023-05-14T17:06:04.774Z,89.40
2023-05-14T17:10:11.026Z,87.70
2023-05-14T17:14:14.841Z,86.00
2023-05-14T17:18:19.363Z,87.30
2023-05-14T17:22:22.848Z,86.20
2023-05-14T17:26:27.740Z,88.20
2023-05-14T17:30:31.371Z,88.70
2023-05-14T17:34:35.111Z,90.60
2023-05-14T17:38:39.154Z,89.80
2023-05-14T17:42:45.737Z,88.90
2023-05-14T17:46:50.385Z,90.40
2023-05-14T17:50:55.010Z,91.40
2023-05-14T17:54:58.503Z,91.90
2023-05-14T17:59:04.637Z,92.70
2023-05-14T18:03:09.108Z,92.20
2023-05-14T18:07:19.074Z,90.30
2023-05-14T18:11:22.282Z,91.10
2023-05-14T18:15:31.845Z,91.00
2023-05-14T18:19:35.081Z,90.00
2023-05-14T18:23:38.077Z,90.40
2023-05-14T18:27:44.499Z,90.20
2023-05-14T18:31:49.060Z,90.70
2023-05-14T18:35:53.724Z,90.90
2023-05-14T18:39:56.724Z,90.20
2023-05-14T18:44:02.474Z,89.00
2023-05-14T18:48:07.760Z,88.70
2023-05-14T18:52:10.968Z,89.40
2023-05-14T18:56:16.044Z,90.00
2023-05-14T19:00:20.804Z,91.70
2023-05-14T19:04:25.332Z,92.90
2023-05-14T19:08:28.484Z,93.40
2023-05-14T19:12:31.757Z,94.00
2023-05-14T19:16:35.432Z,94.70
2023-05-14T19:20:39.948Z,95.30
2023-05-14T19:24:43.060Z,95.60
2023-05-14T19:28:46.233Z,95.70
2023-05-14T19:32:50.478Z,96.00
2023-05-14T19:36:54.773Z,96.10
2023-05-14T19:40:57.910Z,96.40
2023-05-14T19:45:01.096Z,96.20
2023-05-14T19:49:04.097Z,96.60
2023-05-14T19:53:09.751Z,96.90
2023-05-14T19:57:12.923Z,96.80
2023-05-14T20:01:16.178Z,96.50
2023-05-14T20:05:19.711Z,97.10
2023-05-14T20:09:24.298Z,97.40
2023-05-14T20:13:27.340Z,98.00
2023-05-14T20:17:31.009Z,99.00
2023-05-14T20:21:34.184Z,99.20
2023-05-14T20:25:38.419Z,99.10
2023-05-14T20:29:41.543Z,99.40
2023-05-14T20:33:44.622Z,99.60
2023-05-14T20:37:49.295Z,99.40
2023-05-14T20:41:54.182Z,99.30
2023-05-14T20:45:58.378Z,99.60
2023-05-14T20:50:01.699Z,99.90
2023-05-14T20:54:04.742Z,99.90
2023-05-14T20:58:09.003Z,99.90
2023-05-14T21:02:13.379Z,99.90
2023-05-14T21:06:16.383Z,99.90
2023-05-14T21:10:19.331Z,99.90
2023-05-14T21:14:24.115Z,99.90
2023-05-14T21:18:30.603Z,99.90
2023-05-14T21:22:33.534Z,99.90
2023-05-14T21:26:40.248Z,99.90
2023-05-14T21:30:44.364Z,99.90
2023-05-14T21:34:47.261Z,99.90
2023-05-14T21:38:50.144Z,99.90
2023-05-14T21:42:53.720Z,99.90
2023-05-14T21:47:03.815Z,99.90
2023-05-14T21:51:08.159Z,99.90
2023-05-14T21:55:16.449Z,99.90
2023-05-14T21:59:28.378Z,99.90
2023-05-14T22:03:33.202Z,99.90
2023-05-14T22:07:36.558Z,99.90
2023-05-14T22:11:40.082Z,99.90
2023-05-14T22:15:48.390Z,99.90
2023-05-14T22:19:57.256Z,99.90
2023-05-14T22:24:00.373Z,99.90
2023-05-14T22:28:04.991Z,99.90
2023-05-14T22:32:10.349Z,99.90
2023-05-14T22:36:14.822Z,99.90
2023-05-14T22:40:17.940Z,99.90
2023-05-14T22:44:21.156Z,99.90
2023-05-14T22:48:24.386Z,99.90
2023-05-14T22:52:29.256Z,99.90
2023-05-14T22:56:32.594Z,99.90
2023-05-14T23:00:36.008Z,99.90
2023-05-14T23:04:39.509Z,99.90
2023-05-14T23:08:44.166Z,99.90
2023-05-14T23:12:47.284Z,99.90
2023-05-14T23:16:51.515Z,99.90
2023-05-14T23:20:54.870Z,99.90
2023-05-14T23:24:59.136Z,99.90
2023-05-14T23:29:02.123Z,99.90
2023-05-14T23:33:05.258Z,99.90
2023-05-14T23:37:08.841Z,99.90
2023-05-14T23:41:13.024Z,99.90
2023-05-14T23:45:16.504Z,99.90
2023-05-14T23:49:19.964Z,99.90
2023-05-14T23:53:23.207Z,99.90
2023-05-14T23:57:27.690Z,99.90
